Time;durP1;ratioP1;P1;durP2;ratioP2;P2;SDS_P1;SDS_P2;PMS_P1;PMS_P2;Temp;Humidity;BMP_temperature;BMP_pressure;BME280_temperature;BME280_humidity;BME280_pressure;Samples;Min_cycle;Max_cycle;Signal;HPM_P1;HPM_P2
2023/08/03 00:01:30;;;;;;;2.83;1.80;;;;;;;;;;5000364;28;20056;-92
2023/08/03 00:04:00;;;;;;;7.32;2.08;;;;;;;;;;5000790;28;20045;-94
2023/08/03 00:06:27;;;;;;;8.70;2.58;;;;;;;;;;5001572;28;20502;-91
2023/08/03 00:08:53;;;;;;;3.88;1.67;;;;;;;;;;5001264;28;21054;-92
2023/08/03 00:11:19;;;;;;;4.40;1.77;;;;;;;;;;4999799;28;20045;-92
2023/08/03 00:13:45;;;;;;;2.28;1.45;;;;;;;;;;4984929;28;20047;-86
2023/08/03 00:16:11;;;;;;;7.65;1.70;;;16.30;91.30;;;;;;5017643;28;20045;-93
2023/08/03 00:18:37;;;;;;;4.70;2.00;;;16.30;92.20;;;;;;4985090;28;20049;-91
2023/08/03 00:21:03;;;;;;;2.17;1.75;;;;;;;;;;4982423;28;20050;-93
2023/08/03 00:23:29;;;;;;;4.30;1.90;;;;;;;;;;5001361;28;20045;-86
2023/08/03 00:25:55;;;;;;;3.47;1.73;;;;;;;;;;5001365;28;20143;-93
2023/08/03 00:28:22;;;;;;;4.32;1.73;;;;;;;;;;5001045;28;20048;-95
2023/08/03 00:30:48;;;;;;;6.45;2.40;;;;;;;;;;4999429;28;20045;-93
2023/08/03 00:33:14;;;;;;;5.78;2.03;;;;;;;;;;5001102;28;20446;-93
2023/08/03 00:35:40;;;;;;;4.63;1.90;;;;;;;;;;5000910;28;20065;-92
2023/08/03 00:38:06;;;;;;;2.45;1.50;;;;;;;;;;5001022;28;20049;-93
2023/08/03 00:40:33;;;;;;;4.45;1.52;;;16.30;81.10;;;;;;4999829;28;20052;-94
2023/08/03 00:43:04;;;;;;;3.47;1.80;;;;;;;;;;5000497;28;20495;-89
2023/08/03 00:45:30;;;;;;;4.25;1.73;;;;;;;;;;5016742;28;20045;-85
2023/08/03 00:47:56;;;;;;;3.42;1.83;;;;;;;;;;5000264;28;20048;-90
2023/08/03 00:50:22;;;;;;;1.58;1.48;;;;;;;;;;4999970;28;20060;-91
2023/08/03 00:52:48;;;;;;;4.28;1.90;;;;;;;;;;5001048;28;20537;-88
2023/08/03 00:55:14;;;;;;;5.53;1.70;;;;;;;;;;5000608;28;20081;-86
2023/08/03 00:57:41;;;;;;;5.50;1.85;;;;;;;;;;5000248;28;20104;-87
2023/08/03 01:00:07;;;;;;;4.75;1.45;;;16.40;88.00;;;;;;4983558;28;20045;-87
2023/08/03 01:02:33;;;;;;;6.13;1.98;;;;;;;;;;4998248;28;20041;-86
2023/08/03 01:04:59;;;;;;;4.18;1.77;;;;;;;;;;4983829;28;20100;-89
2023/08/03 01:07:26;;;;;;;4.03;2.20;;;;;;;;;;4999954;28;20414;-87
2023/08/03 01:09:52;;;;;;;3.75;1.90;;;;;;;;;;5015997;28;20056;-89
2023/08/03 01:12:18;;;;;;;4.47;1.92;;;;;;;;;;4998538;28;20041;-89
2023/08/03 01:14:47;;;;;;;4.93;1.85;;;;;;;;;;4999661;28;20115;-93
2023/08/03 01:17:13;;;;;;;2.30;1.58;;;;;;;;;;4999914;28;20055;-89
2023/08/03 01:19:39;;;;;;;6.53;1.50;;;;;;;;;;4999731;28;20056;-90
2023/08/03 01:22:07;;;;;;;5.32;1.88;;;;;;;;;;4998180;28;20047;-89
2023/08/03 01:24:33;;;;;;;5.30;1.85;;;;;;;;;;4998558;28;20049;-90
2023/08/03 01:26:59;;;;;;;5.82;1.77;;;;;;;;;;5015763;28;20046;-89
2023/08/03 01:29:25;;;;;;;4.28;1.98;;;;;;;;;;5033494;28;20056;-90
2023/08/03 01:31:56;;;;;;;2.25;1.67;;;;;;;;;;4997729;28;20049;-91
2023/08/03 01:34:26;;;;;;;1.70;1.60;;;;;;;;;;4999230;28;20073;-89
2023/08/03 01:36:53;;;;;;;1.60;1.50;;;16.50;83.50;;;;;;4983218;28;20061;-91
2023/08/03 01:39:20;;;;;;;4.63;1.75;;;;;;;;;;5015726;28;20132;-91
2023/08/03 01:41:47;;;;;;;3.65;1.60;;;;;;;;;;4998154;28;20095;-91
2023/08/03 01:44:21;;;;;;;3.50;1.40;;;16.50;97.20;;;;;;4999308;28;20052;-92
2023/08/03 01:46:47;;;;;;;3.00;1.55;;;;;;;;;;5015670;28;20128;-92
2023/08/03 01:49:13;;;;;;;3.55;1.67;;;;;;;;;;4999242;28;20042;-93
2023/08/03 01:51:40;;;;;;;2.45;1.75;;;;;;;;;;5016274;28;20418;-91
2023/08/03 01:54:06;;;;;;;2.05;1.38;;;;;;;;;;5016235;28;20061;-88
2023/08/03 01:56:32;;;;;;;1.98;1.58;;;;;;;;;;4999094;28;20609;-90
2023/08/03 01:58:58;;;;;;;3.95;1.75;;;;;;;;;;4982955;28;20049;-91
2023/08/03 02:01:24;;;;;;;1.75;1.30;;;;;;;;;;4998766;28;20175;-91
2023/08/03 02:03:50;;;;;;;2.25;1.67;;;;;;;;;;4982950;28;20085;-91
2023/08/03 02:06:16;;;;;;;3.70;1.27;;;;;;;;;;4982960;28;20041;-89
2023/08/03 02:08:42;;;;;;;2.35;1.33;;;;;;;;;;4982756;28;20065;-92
2023/08/03 02:11:08;;;;;;;3.05;1.90;;;;;;;;;;4997752;28;20087;-88
2023/08/03 02:13:34;;;;;;;1.83;1.40;;;;;;;;;;4998527;28;20052;-89
2023/08/03 02:16:08;;;;;;;1.83;1.65;;;16.60;88.70;;;;;;4998399;28;20056;-92
2023/08/03 02:18:34;;;;;;;3.00;1.75;;;;;;;;;;4982425;28;20441;-92
2023/08/03 02:21:00;;;;;;;2.15;1.95;;;;;;;;;;4982158;28;20042;-93
2023/08/03 02:23:27;;;;;;;5.45;2.92;;;;;;;;;;4982809;28;20076;-90
2023/08/03 02:25:53;;;;;;;4.35;1.83;;;;;;;;;;4982245;28;20045;-90
2023/08/03 02:28:19;;;;;;;3.20;1.88;;;;;;;;;;4998210;28;20053;-89
2023/08/03 02:30:45;;;;;;;5.00;1.85;;;;;;;;;;4997606;28;20152;-92
2023/08/03 02:33:11;;;;;;;3.03;1.48;;;;;;;;;;4998488;28;20042;-89
2023/08/03 02:35:39;;;;;;;2.35;2.00;;;;;;;;;;4981951;28;20107;-91
2023/08/03 02:38:08;;;;;;;2.65;1.92;;;;;;;;;;4982595;28;20045;-91
2023/08/03 02:40:34;;;;;;;2.45;1.70;;;;;;;;;;4997317;28;20458;-90
2023/08/03 02:43:00;;;;;;;1.95;1.70;;;;;;;;;;4998566;28;20048;-90
2023/08/03 02:45:26;;;;;;;5.35;1.67;;;;;;;;;;4998326;28;20045;-90
2023/08/03 02:47:53;;;;;;;2.70;1.90;;;;;;;;;;4998524;28;20142;-89
2023/08/03 02:50:19;;;;;;;2.15;1.90;;;;;;;;;;4997268;28;20061;-90
2023/08/03 02:52:45;;;;;;;2.70;1.92;;;;;;;;;;4981837;28;20140;-89
2023/08/03 02:55:11;;;;;;;2.60;1.85;;;;;;;;;;5014086;28;20042;-91
2023/08/03 02:57:37;;;;;;;5.93;1.83;;;;;;;;;;5014356;28;20557;-91
2023/08/03 03:00:04;;;;;;;3.45;2.10;;;;;;;;;;4997110;28;20517;-90
2023/08/03 03:02:30;;;;;;;3.50;1.83;;;;;;;;;;4997604;28;20401;-90
2023/08/03 03:04:56;;;;;;;3.72;2.22;;;;;;;;;;5014452;28;20107;-89
2023/08/03 03:07:22;;;;;;;3.13;2.45;;;;;;;;;;4982798;28;20056;-92
2023/08/03 03:09:48;;;;;;;2.53;2.30;;;;;;;;;;4980686;28;20517;-90
2023/08/03 03:12:14;;;;;;;2.47;2.28;;;;;;;;;;4998082;28;20505;-89
2023/08/03 03:14:40;;;;;;;3.75;2.15;;;;;;;;;;5014405;28;20041;-89
2023/08/03 03:17:06;;;;;;;3.92;2.17;;;;;;;;;;5014532;28;20132;-90
2023/08/03 03:19:32;;;;;;;2.40;2.20;;;;;;;;;;5014338;28;20049;-91
2023/08/03 03:21:58;;;;;;;2.55;2.13;;;;;;;;;;5014274;28;20387;-92
2023/08/03 03:24:25;;;;;;;4.60;2.70;;;;;;;;;;5013816;28;20118;-89
2023/08/03 03:26:51;;;;;;;2.45;2.15;;;;;;;;;;4982016;28;20151;-88
2023/08/03 03:29:17;;;;;;;3.50;2.65;;;;;;;;;;5015570;28;20566;-89
2023/08/03 03:31:43;;;;;;;5.53;2.53;;;;;;;;;;5000519;28;20410;-87
2023/08/03 03:34:09;;;;;;;7.97;2.75;;;;;;;;;;5001175;28;20040;-89
2023/08/03 03:36:35;;;;;;;4.22;2.58;;;;;;;;;;4985001;28;20049;-88
2023/08/03 03:39:01;;;;;;;7.32;2.50;;;;;;;;;;5001598;28;20045;-88
2023/08/03 03:41:27;;;;;;;3.92;3.30;;;;;;;;;;5016422;28;20045;-89
2023/08/03 03:43:53;;;;;;;3.65;2.45;;;;;;;;;;4985272;28;20042;-90
2023/08/03 03:46:19;;;;;;;4.03;2.75;;;;;;;;;;4984894;28;20052;-90
2023/08/03 03:48:45;;;;;;;3.05;2.85;;;;;;;;;;4985061;28;20563;-90
2023/08/03 03:51:11;;;;;;;6.07;2.85;;;;;;;;;;5000031;28;20133;-90
2023/08/03 03:53:37;;;;;;;5.93;2.72;;;;;;;;;;4985124;28;20045;-90
2023/08/03 03:56:04;;;;;;;3.95;2.72;;;;;;;;;;5001867;28;20052;-90
2023/08/03 03:58:30;;;;;;;3.20;2.90;;;;;;;;;;4985743;28;20056;-90
2023/08/03 04:00:56;;;;;;;4.13;2.75;;;;;;;;;;5000830;28;20050;-89
2023/08/03 04:03:24;;;;;;;5.70;3.00;;;;;;;;;;5001185;28;20100;-89
2023/08/03 04:05:50;;;;;;;3.40;3.10;;;;;;;;;;5001149;28;20135;-89
2023/08/03 04:08:16;;;;;;;4.00;3.08;;;;;;;;;;4985633;28;20053;-90
2023/08/03 04:10:42;;;;;;;5.75;3.58;;;;;;;;;;5000170;28;20041;-90
2023/08/03 04:13:08;;;;;;;4.25;3.20;;;;;;;;;;4985707;28;20184;-90
2023/08/03 04:15:34;;;;;;;3.88;3.53;;;;;;;;;;5001482;28;20050;-90
2023/08/03 04:18:00;;;;;;;4.70;3.53;;;;;;;;;;5017264;28;20099;-89
2023/08/03 04:20:26;;;;;;;4.03;3.28;;;;;;;;;;5014051;28;20098;-89
2023/08/03 04:22:52;;;;;;;4.55;3.22;;;;;;;;;;4997592;28;20115;-89
2023/08/03 04:25:18;;;;;;;6.00;3.53;;;;;;;;;;4965044;28;20129;-90
2023/08/03 04:27:44;;;;;;;5.70;3.70;;;;;;;;;;4981114;28;20046;-90
2023/08/03 04:30:13;;;;;;;3.90;3.33;;;;;;;;;;4964446;28;20533;-90
2023/08/03 04:32:39;;;;;;;8.40;3.67;;;;;;;;;;5000309;28;20077;-89
2023/08/03 04:35:05;;;;;;;7.22;3.65;;;;;;;;;;5000105;28;20053;-90
2023/08/03 04:37:32;;;;;;;5.63;3.97;;;;;;;;;;5000097;28;20068;-89
2023/08/03 04:39:58;;;;;;;8.70;3.55;;;;;;;;;;4995854;28;20116;-90
2023/08/03 04:42:24;;;;;;;7.45;4.18;;;;;;;;;;5013569;28;20101;-89
2023/08/03 04:44:50;;;;;;;6.50;4.00;;;;;;;;;;5017008;28;20533;-91
2023/08/03 04:47:16;;;;;;;9.80;4.28;;;;;;;;;;5000680;28;20045;-86
2023/08/03 04:49:42;;;;;;;8.10;4.00;;;16.50;99.90;;;;;;5000037;28;20076;-84
2023/08/03 04:52:08;;;;;;;7.40;4.15;;;;;;;;;;4983156;28;20049;-87
2023/08/03 04:54:34;;;;;;;8.68;3.75;;;;;;;;;;5016314;28;20041;-89
2023/08/03 04:57:00;;;;;;;6.57;4.13;;;;;;;;;;5000578;28;20041;-90
2023/08/03 04:59:26;;;;;;;6.60;3.95;;;;;;;;;;5000492;28;20495;-90
2023/08/03 05:01:52;;;;;;;6.38;4.10;;;;;;;;;;4998907;28;20049;-88
2023/08/03 05:04:18;;;;;;;15.07;5.13;;;;;;;;;;4999785;28;20092;-87
2023/08/03 05:06:44;;;;;;;7.32;3.83;;;;;;;;;;5014870;28;20052;-87
2023/08/03 05:09:11;;;;;;;6.50;4.57;;;;;;;;;;4980133;28;20045;-88
2023/08/03 05:11:37;;;;;;;9.63;4.35;;;;;;;;;;4980468;28;20052;-88
2023/08/03 05:14:03;;;;;;;9.85;4.82;;;;;;;;;;4981402;28;20046;-88
2023/08/03 05:16:29;;;;;;;9.02;4.50;;;;;;;;;;4980195;28;20053;-88
2023/08/03 05:18:55;;;;;;;5.97;4.25;;;;;;;;;;4996373;28;20042;-83
2023/08/03 05:21:21;;;;;;;7.88;4.28;;;;;;;;;;4980301;28;20046;-84
2023/08/03 05:23:47;;;;;;;6.78;4.63;;;16.50;99.90;;;;;;4980145;28;20077;-83
2023/08/03 05:26:13;;;;;;;8.52;5.03;;;;;;;;;;4995904;28;20085;-83
2023/08/03 05:28:39;;;;;;;11.02;4.47;;;;;;;;;;4980177;28;20129;-83
2023/08/03 05:31:05;;;;;;;5.32;4.25;;;;;;;;;;4981801;28;20085;-85
2023/08/03 05:33:34;;;;;;;6.57;4.72;;;16.70;99.90;;;;;;4997100;28;20073;-93
2023/08/03 05:36:01;;;;;;;7.13;4.03;;;;;;;;;;5009458;28;20079;-90
2023/08/03 05:38:27;;;;;;;6.82;4.05;;;;;;;;;;5016262;28;20060;-92
2023/08/03 05:40:55;;;;;;;6.00;3.95;;;;;;;;;;5016593;28;20509;-93
2023/08/03 05:43:24;;;;;;;5.50;3.85;;;16.30;95.10;;;;;;5016027;28;20049;-92
2023/08/03 05:45:53;;;;;;;4.50;4.10;;;;;;;;;;4999651;28;20056;-90
2023/08/03 05:48:20;;;;;;;4.90;3.88;;;16.50;94.90;;;;;;4995155;28;20099;-83
2023/08/03 05:50:48;;;;;;;6.95;4.30;;;16.60;95.30;;;;;;4999133;28;20514;-89
2023/08/03 05:53:15;;;;;;;5.53;3.97;;;;;;;;;;4998781;28;20114;-93
2023/08/03 05:55:41;;;;;;;7.35;4.53;;;;;;;;;;4982998;28;20049;-92
2023/08/03 05:58:09;;;;;;;6.30;4.35;;;;;;;;;;4982583;28;20044;-93
2023/08/03 06:00:35;;;;;;;4.60;3.83;;;;;;;;;;4999340;28;20494;-89
2023/08/03 06:03:02;;;;;;;5.80;4.00;;;;;;;;;;4997395;28;20072;-85
2023/08/03 06:05:41;;;;;;;3.58;3.22;;;;;;;;;;5000472;28;20402;-91
2023/08/03 06:08:21;;;;;;;4.78;3.88;;;16.60;99.90;;;;;;5015980;28;20045;-83
2023/08/03 06:10:52;;;;;;;4.60;3.72;;;16.60;96.70;;;;;;4982259;28;20045;-86
2023/08/03 06:13:25;;;;;;;3.80;3.38;;;16.70;99.90;;;;;;5014903;28;20072;-84
2023/08/03 06:15:51;;;;;;;4.05;3.13;;;;;;;;;;5014523;28;20084;-86
2023/08/03 06:18:18;;;;;;;5.22;3.55;;;;;;;;;;4998232;28;20045;-87
2023/08/03 06:20:49;;;;;;;4.05;3.30;;;16.50;95.70;;;;;;4997934;28;20045;-87
2023/08/03 06:23:19;;;;;;;3.42;3.10;;;16.60;90.30;;;;;;4997332;28;20048;-83
2023/08/03 06:25:46;;;;;;;4.65;3.55;;;;;;;;;;4997881;28;20049;-84
2023/08/03 06:28:14;;;;;;;9.40;3.60;;;;;;;;;;4998264;28;20042;-83
2023/08/03 06:30:40;;;;;;;4.13;3.53;;;;;;;;;;4998054;28;20528;-87
2023/08/03 06:33:09;;;;;;;4.40;3.33;;;16.80;95.40;;;;;;5010646;28;20037;-84
2023/08/03 06:35:43;;;;;;;5.05;2.90;;;16.60;96.30;;;;;;4998070;28;20383;-86
2023/08/03 06:38:12;;;;;;;5.85;3.03;;;16.90;96.40;;;;;;4997876;28;20430;-87
2023/08/03 06:40:40;;;;;;;2.90;2.60;;;16.90;94.50;;;;;;4981964;28;20048;-87
2023/08/03 06:43:06;;;;;;;4.60;2.70;;;;;;;;;;4997608;28;20053;-85
2023/08/03 06:45:33;;;;;;;4.13;2.67;;;16.90;94.50;;;;;;5013371;28;20119;-84
2023/08/03 06:47:59;;;;;;;3.15;2.85;;;;;;;;;;4997984;28;20083;-85
2023/08/03 06:50:28;;;;;;;2.63;2.40;;;16.90;90.90;;;;;;5014021;28;20121;-85
2023/08/03 06:52:54;;;;;;;4.95;2.38;;;;;;;;;;4996951;28;20045;-85
2023/08/03 06:55:20;;;;;;;3.53;2.65;;;;;;;;;;4982227;28;20091;-83
2023/08/03 06:57:46;;;;;;;3.67;2.72;;;;;;;;;;4998303;28;20426;-84
2023/08/03 07:00:12;;;;;;;3.72;3.30;;;;;;;;;;5014155;28;20046;-85
2023/08/03 07:02:39;;;;;;;4.25;2.95;;;;;;;;;;4996518;28;20514;-85
2023/08/03 07:05:05;;;;;;;2.42;2.17;;;17.30;99.90;;;;;;5001263;28;20410;-86
2023/08/03 07:07:31;;;;;;;3.67;2.55;;;;;;;;;;5001895;28;20053;-88
2023/08/03 07:09:59;;;;;;;2.92;2.45;;;;;;;;;;5017789;28;20095;-88
2023/08/03 07:12:25;;;;;;;3.13;2.10;;;;;;;;;;5000374;28;20073;-88
2023/08/03 07:14:51;;;;;;;2.80;2.15;;;;;;;;;;5016226;28;20042;-89
2023/08/03 07:17:17;;;;;;;1.67;1.58;;;;;;;;;;4984525;28;20045;-87
2023/08/03 07:19:43;;;;;;;3.53;1.45;;;;;;;;;;5017893;28;20042;-86
2023/08/03 07:22:10;;;;;;;1.88;1.67;;;;;;;;;;5001533;28;20053;-85
2023/08/03 07:24:36;;;;;;;3.83;1.98;;;17.50;84.50;;;;;;5001705;28;20033;-87
2023/08/03 07:27:02;;;;;;;1.90;1.73;;;;;;;;;;5000333;28;20128;-88
2023/08/03 07:29:29;;;;;;;5.30;1.52;;;17.80;82.20;;;;;;5017875;28;20049;-85
2023/08/03 07:31:55;;;;;;;1.52;1.35;;;;;;;;;;5017704;28;20042;-87
2023/08/03 07:34:22;;;;;;;3.80;1.40;;;;;;;;;;5017622;28;20050;-85
2023/08/03 07:36:52;;;;;;;3.15;1.30;;;17.80;70.60;;;;;;5016051;28;20497;-88
2023/08/03 07:39:18;;;;;;;4.95;1.17;;;;;;;;;;5001128;28;20051;-89
2023/08/03 07:41:44;;;;;;;6.15;1.40;;;;;;;;;;5017350;28;20053;-88
2023/08/03 07:44:10;;;;;;;5.35;1.42;;;;;;;;;;5001375;28;20049;-89
2023/08/03 07:46:36;;;;;;;1.90;1.52;;;;;;;;;;4984189;28;20085;-89
2023/08/03 07:49:02;;;;;;;2.65;1.70;;;;;;;;;;5001333;28;20442;-89
2023/08/03 07:51:28;;;;;;;4.40;1.48;;;;;;;;;;5000999;28;20132;-88
2023/08/03 07:53:56;;;;;;;3.30;1.15;;;18.30;47.80;;;;;;5001217;28;20087;-87
2023/08/03 07:56:22;;;;;;;3.53;1.25;;;;;;;;;;4999754;28;20486;-85
2023/08/03 07:58:50;;;;;;;4.47;1.50;;;18.20;51.50;;;;;;5017161;28;20486;-84
2023/08/03 08:01:17;;;;;;;8.20;1.63;;;;;;;;;;5016998;28;20047;-88
2023/08/03 08:03:43;;;;;;;4.38;1.60;;;;;;;;;;5017257;28;20046;-94
2023/08/03 08:06:09;;;;;;;2.60;1.45;;;;;;;;;;5016972;28;20037;-93
2023/08/03 08:08:36;;;;;;;3.08;1.10;;;;;;;;;;5001844;28;20041;-90
2023/08/03 08:11:03;;;;;;;5.10;1.30;;;;;;;;;;5001698;28;20045;-93
2023/08/03 08:13:29;;;;;;;4.78;1.50;;;;;;;;;;5001701;28;20038;-86
2023/08/03 08:16:00;;;;;;;8.73;2.97;;;18.70;35.00;;;;;;4999120;28;20049;-94
2023/08/03 08:18:26;;;;;;;3.33;1.20;;;;;;;;;;5001814;28;20084;-84
2023/08/03 08:20:56;;;;;;;2.33;0.82;;;18.80;29.00;;;;;;4985147;28;20042;-87
2023/08/03 08:23:22;;;;;;;3.75;1.50;;;;;;;;;;4985456;28;20401;-93
2023/08/03 08:25:48;;;;;;;2.38;1.23;;;;;;;;;;5000544;28;20100;-92
2023/08/03 08:28:14;;;;;;;2.67;1.30;;;;;;;;;;5017403;28;20045;-93
2023/08/03 08:30:40;;;;;;;2.58;1.33;;;;;;;;;;5001810;28;20104;-91
2023/08/03 08:33:07;;;;;;;2.40;1.75;;;;;;;;;;5017555;28;20076;-92
2023/08/03 08:35:33;;;;;;;5.05;1.38;;;;;;;;;;5001245;28;20065;-89
2023/08/03 08:38:04;;;;;;;6.53;2.05;;;19.00;6.30;;;;;;5016073;28;20120;-84
2023/08/03 08:40:33;;;;;;;6.22;1.50;;;19.10;7.20;;;;;;4985014;28;20057;-86
2023/08/03 08:42:59;;;;;;;6.00;1.63;;;;;;;;;;5000664;28;20478;-85
2023/08/03 08:45:25;;;;;;;4.63;1.63;;;;;;;;;;5017217;28;20060;-87
2023/08/03 08:47:51;;;;;;;4.25;2.45;;;;;;;;;;5033277;28;20080;-85
2023/08/03 08:50:18;;;;;;;8.55;1.95;;;;;;;;;;5000194;28;20052;-86
2023/08/03 08:52:44;;;;;;;5.28;1.80;;;19.00;1.00;;;;;;5017032;28;20103;-93
2023/08/03 08:55:15;;;;;;;4.70;2.13;;;18.90;1.00;;;;;;5034304;28;20442;-83
2023/08/03 08:57:41;;;;;;;7.50;2.22;;;;;;;;;;5032434;28;20048;-90
2023/08/03 09:00:07;;;;;;;8.73;2.83;;;;;;;;;;5034776;28;20045;-83
2023/08/03 09:02:34;;;;;;;7.68;2.67;;;;;;;;;;5032627;28;20048;-94
2023/08/03 09:05:33;;;;;;;4.40;1.80;;;18.90;3.70;;;;;;5016660;28;20076;-92
2023/08/03 09:08:02;;;;;;;3.85;1.90;;;19.30;1.00;;;;;;4939390;28;20061;-84
2023/08/03 09:10:28;;;;;;;6.63;2.75;;;;;;;;;;5016021;28;20057;-86
2023/08/03 09:12:56;;;;;;;4.07;2.10;;;;;;;;;;4999575;28;20053;-91
2023/08/03 09:15:40;;;;;;;5.88;2.08;;;19.40;1.00;;;;;;5000756;28;20041;-92
2023/08/03 09:18:07;;;;;;;2.85;2.20;;;19.30;1.00;;;;;;4983766;28;20099;-86
2023/08/03 09:20:34;;;;;;;7.22;2.25;;;19.60;1.00;;;;;;4999501;28;20049;-86
2023/08/03 09:23:01;;;;;;;5.45;2.10;;;19.50;1.00;;;;;;5009439;28;20042;-90
2023/08/03 09:25:27;;;;;;;6.28;2.95;;;;;;;;;;4996613;28;20050;-89
2023/08/03 09:27:55;;;;;;;5.18;1.90;;;19.70;1.00;;;;;;4996098;28;20049;-90
2023/08/03 09:30:22;;;;;;;4.07;2.30;;;19.60;1.00;;;;;;5012428;28;20526;-88
2023/08/03 09:32:48;;;;;;;2.97;1.85;;;;;;;;;;5011859;28;20037;-83
2023/08/03 09:35:22;;;;;;;8.32;2.03;;;20.00;1.00;;;;;;4999313;28;20413;-84
2023/08/03 09:37:48;;;;;;;;;;;19.80;1.00;;;;;;5016270;28;20077;-85
2023/08/03 09:40:17;;;;;;;5.07;1.55;;;;;;;;;;5015751;28;19921;-88
2023/08/03 09:42:43;;;;;;;3.85;1.60;;;;;;;;;;4998406;28;20049;-89
2023/08/03 09:45:11;;;;;;;3.53;2.42;;;20.40;1.00;;;;;;4998123;28;20073;-91
2023/08/03 09:47:39;;;;;;;3.92;2.13;;;;;;;;;;4982737;28;20099;-91
2023/08/03 09:50:06;;;;;;;6.95;1.92;;;20.30;1.00;;;;;;4983217;28;20072;-84
2023/08/03 09:52:32;;;;;;;7.18;2.17;;;;;;;;;;4999612;28;20048;-87
2023/08/03 09:55:06;;;;;;;4.93;1.85;;;20.60;1.00;;;;;;4999086;28;20445;-83
2023/08/03 09:57:38;;;;;;;4.22;1.90;;;20.60;1.00;;;;;;5000016;28;20502;-88
2023/08/03 10:00:08;;;;;;;5.22;2.15;;;20.70;1.00;;;;;;5015560;28;20045;-88
2023/08/03 10:02:51;;;;;;;6.82;2.45;;;20.90;1.00;;;;;;4997431;28;20049;-87
2023/08/03 10:05:19;;;;;;;6.82;1.65;;;21.00;1.00;;;;;;4998805;28;20406;-85
2023/08/03 10:07:57;;;;;;;4.63;1.75;;;20.70;1.00;;;;;;4998989;28;20050;-89
2023/08/03 10:10:25;;;;;;;3.72;1.73;;;20.70;1.00;;;;;;5015087;28;20045;-85
2023/08/03 10:12:59;;;;;;;3.55;1.45;;;20.70;1.00;;;;;;4997434;28;20533;-87
2023/08/03 10:15:26;;;;;;;4.63;1.77;;;;;;;;;;5019625;28;20041;-90
2023/08/03 10:17:53;;;;;;;9.52;1.88;;;20.40;1.00;;;;;;5000833;28;20136;-91
2023/08/03 10:20:20;;;;;;;4.47;1.80;;;20.50;1.00;;;;;;4983767;28;20064;-89
2023/08/03 10:23:18;;;;;;;4.05;1.85;;;20.50;1.00;;;;;;4981913;28;20053;-86
2023/08/03 10:25:54;;;;;;;7.65;2.00;;;20.40;1.00;;;;;;5015306;28;20409;-86
2023/08/03 10:28:21;;;;;;;6.53;1.88;;;20.30;1.00;;;;;;4998603;28;20048;-88
2023/08/03 10:31:15;;;;;;;5.20;1.83;;;20.40;1.00;;;;;;4998310;28;20582;-82
2023/08/03 10:33:49;;;;;;;7.32;1.55;;;20.30;1.00;;;;;;4994630;28;20042;-84
2023/08/03 10:36:38;;;;;;;4.88;1.67;;;20.30;1.00;;;;;;4977588;28;20152;-85
2023/08/03 10:39:12;;;;;;;2.75;1.42;;;20.20;1.00;;;;;;5013768;28;20052;-86
2023/08/03 10:41:40;;;;;;;3.10;1.30;;;20.60;1.00;;;;;;4998199;28;20490;-87
2023/08/03 10:44:09;;;;;;;5.32;1.38;;;;;;;;;;5014721;28;20042;-90
2023/08/03 10:46:35;;;;;;;3.17;1.02;;;;;;;;;;5013598;28;20048;-86
2023/08/03 10:49:25;;;;;;;4.18;1.38;;;20.50;1.00;;;;;;4998095;28;20402;-83
2023/08/03 10:51:53;;;;;;;6.75;1.85;;;20.90;1.00;;;;;;5014426;28;20093;-88
2023/08/03 10:54:29;;;;;;;7.57;2.00;;;21.10;1.00;;;;;;4981757;28;20045;-86
2023/08/03 10:57:12;;;;;;;2.13;0.80;;;20.90;1.00;;;;;;5013137;28;20052;-87
2023/08/03 10:59:40;;;;;;;4.20;0.90;;;20.90;1.00;;;;;;4998389;28;20053;-88
2023/08/03 11:02:12;;;;;;;2.45;1.00;;;21.00;1.00;;;;;;4997950;28;20100;-85
2023/08/03 11:04:39;;;;;;;2.47;1.25;;;;;;;;;;4997695;28;20042;-85
2023/08/03 11:07:09;;;;;;;4.95;1.02;;;21.10;1.00;;;;;;4981102;28;20044;-87
2023/08/03 11:09:35;;;;;;;2.65;1.73;;;21.30;1.00;;;;;;4981328;28;20046;-86
2023/08/03 11:12:03;;;;;;;3.95;0.98;;;21.00;1.00;;;;;;4997967;28;20100;-84
2023/08/03 11:14:29;;;;;;;4.70;1.30;;;;;;;;;;4981871;28;20132;-89
2023/08/03 11:16:55;;;;;;;4.93;1.15;;;;;;;;;;4981056;28;20045;-82
2023/08/03 11:19:22;;;;;;;1.15;1.05;;;21.20;1.00;;;;;;4997894;28;20049;-85
2023/08/03 11:21:49;;;;;;;4.68;1.05;;;;;;;;;;4998120;28;20041;-87
2023/08/03 11:24:15;;;;;;;3.92;1.00;;;;;;;;;;4997658;28;20050;-86
2023/08/03 11:26:41;;;;;;;4.07;1.05;;;21.10;1.00;;;;;;4997048;28;20049;-82
2023/08/03 11:29:08;;;;;;;2.45;0.90;;;;;;;;;;4997887;28;20045;-86
2023/08/03 11:31:34;;;;;;;1.52;0.90;;;;;;;;;;5014473;28;20456;-89
2023/08/03 11:34:00;;;;;;;1.88;1.20;;;;;;;;;;4997741;28;20042;-85
2023/08/03 11:36:26;;;;;;;2.33;1.10;;;;;;;;;;4996607;28;20068;-84
2023/08/03 11:38:53;;;;;;;5.05;1.20;;;;;;;;;;4997898;28;20452;-88
2023/08/03 11:41:24;;;;;;;2.03;1.10;;;21.40;1.00;;;;;;4995883;28;20044;-88
2023/08/03 11:43:50;;;;;;;3.40;1.02;;;;;;;;;;4997962;28;20060;-86
2023/08/03 11:46:27;;;;;;;2.75;1.00;;;21.40;1.00;;;;;;5013944;28;20045;-84
2023/08/03 11:49:00;;;;;;;1.50;1.10;;;21.40;1.00;;;;;;4997500;28;20039;-85
2023/08/03 11:51:37;;;;;;;3.90;1.40;;;21.50;1.00;;;;;;5000042;28;20045;-84
2023/08/03 11:54:08;;;;;;;3.40;1.77;;;21.50;1.00;;;;;;5001223;28;20052;-87
2023/08/03 11:56:35;;;;;;;5.25;1.67;;;21.50;1.00;;;;;;5017991;28;20038;-87
2023/08/03 11:59:04;;;;;;;5.15;1.98;;;21.40;1.00;;;;;;5017377;28;20042;-91
2023/08/03 12:01:30;;;;;;;5.15;2.33;;;;;;;;;;4984645;28;20049;-86
2023/08/03 12:04:07;;;;;;;5.03;1.65;;;21.50;1.00;;;;;;5001444;28;20034;-88
2023/08/03 12:06:56;;;;;;;3.78;1.90;;;21.20;1.00;;;;;;5017789;28;20045;-92
2023/08/03 12:09:26;;;;;;;9.65;1.88;;;21.00;1.00;;;;;;5017841;28;20068;-93
2023/08/03 12:12:06;;;;;;;6.97;1.70;;;20.60;1.00;;;;;;5016805;28;20037;-91
2023/08/03 12:14:32;;;;;;;8.63;2.00;;;;;;;;;;5016317;28;20099;-92
2023/08/03 12:16:58;;;;;;;6.28;1.67;;;;;;;;;;5001506;28;20520;-92
2023/08/03 12:19:29;;;;;;;3.70;1.70;;;;;;;;;;5001645;28;20132;-93
2023/08/03 12:21:55;;;;;;;3.88;1.83;;;;;;;;;;4985968;28;20486;-93
2023/08/03 12:24:21;;;;;;;9.18;1.60;;;;;;;;;;4984256;28;20402;-92
2023/08/03 12:26:47;;;;;;;2.88;1.50;;;;;;;;;;5001382;28;20068;-91
2023/08/03 12:29:13;;;;;;;7.95;1.90;;;;;;;;;;5016821;28;20045;-87
2023/08/03 12:31:39;;;;;;;4.88;2.03;;;;;;;;;;4999580;28;20050;-87
2023/08/03 12:34:06;;;;;;;5.03;1.42;;;;;;;;;;5015470;28;20132;-85
2023/08/03 12:36:31;;;;;;;8.82;1.80;;;20.50;1.00;;;;;;5000148;28;20084;-89
2023/08/03 12:38:57;;;;;;;6.78;2.25;;;20.20;1.00;;;;;;4984037;28;20487;-83
2023/08/03 12:41:23;;;;;;;9.23;1.42;;;20.60;1.00;;;;;;5017218;28;20128;-91
2023/08/03 12:43:49;;;;;;;10.75;3.20;;;;;;;;;;4983164;28;20485;-86
2023/08/03 12:46:16;;;;;;;6.53;2.47;;;;;;;;;;5000714;28;20188;-85
2023/08/03 12:48:42;;;;;;;12.88;4.47;;;;;;;;;;5014723;28;20049;-85
2023/08/03 12:51:09;;;;;;;8.77;3.40;;;;;;;;;;4999966;28;20526;-86
2023/08/03 12:53:37;;;;;;;12.23;3.22;;;19.90;1.00;;;;;;5016369;28;20131;-89
2023/08/03 12:56:03;;;;;;;9.40;2.88;;;;;;;;;;5016628;28;20045;-90
2023/08/03 12:58:29;;;;;;;8.00;2.88;;;;;;;;;;5015725;28;20041;-87
2023/08/03 13:00:59;;;;;;;7.03;2.58;;;;;;;;;;5000516;28;20395;-83
2023/08/03 13:03:25;;;;;;;10.10;4.18;;;;;;;;;;4999807;28;20107;-83
2023/08/03 13:05:51;;;;;;;8.18;2.72;;;;;;;;;;5016459;28;20037;-86
2023/08/03 13:08:18;;;;;;;11.85;3.88;;;;;;;;;;4982968;28;20041;-85
2023/08/03 13:10:45;;;;;;;6.30;3.35;;;19.20;1.00;;;;;;4998641;28;20045;-90
2023/08/03 13:13:11;;;;;;;9.43;3.10;;;;;;;;;;4985305;28;20048;-92
2023/08/03 13:15:38;;;;;;;9.57;3.17;;;;;;;;;;5017518;28;20100;-91
2023/08/03 13:18:04;;;;;;;11.38;2.97;;;;;;;;;;5018143;28;20033;-92
2023/08/03 13:20:30;;;;;;;5.45;2.50;;;;;;;;;;5035636;28;20056;-88
2023/08/03 13:22:58;;;;;;;6.55;2.30;;;;;;;;;;5036025;28;20048;-91
2023/08/03 13:25:24;;;;;;;13.50;3.17;;;;;;;;;;5036200;28;20049;-87
2023/08/03 13:27:51;;;;;;;6.90;2.47;;;;;;;;;;5001082;28;20076;-88
2023/08/03 13:30:19;;;;;;;8.95;2.97;;;;;;;;;;5034821;28;20406;-89
2023/08/03 13:32:46;;;;;;;9.50;3.38;;;;;;;;;;5001619;28;20046;-92
2023/08/03 13:35:12;;;;;;;5.97;3.22;;;;;;;;;;5018039;28;20376;-92
2023/08/03 13:37:38;;;;;;;16.20;3.92;;;19.00;1.00;;;;;;5000445;28;20050;-88
2023/08/03 13:40:05;;;;;;;9.65;3.53;;;;;;;;;;5001616;28;20175;-87
2023/08/03 13:42:31;;;;;;;14.20;3.63;;;;;;;;;;5002160;28;20136;-92
2023/08/03 13:44:57;;;;;;;13.77;3.33;;;;;;;;;;5001681;28;20107;-91
2023/08/03 13:47:23;;;;;;;7.90;4.20;;;;;;;;;;4984489;28;20046;-90
2023/08/03 13:49:49;;;;;;;12.68;3.55;;;;;;;;;;5001594;28;20104;-91
2023/08/03 13:52:15;;;;;;;8.40;3.35;;;;;;;;;;5001021;28;20091;-88
2023/08/03 13:54:41;;;;;;;13.10;3.67;;;;;;;;;;5015551;28;20049;-86
2023/08/03 13:57:08;;;;;;;10.73;3.72;;;;;;;;;;4985568;28;20056;-85
2023/08/03 13:59:34;;;;;;;11.07;4.20;;;;;;;;;;4986070;28;20049;-92
2023/08/03 14:02:00;;;;;;;9.75;3.95;;;;;;;;;;4982623;28;20065;-93
2023/08/03 14:04:31;;;;;;;15.77;4.57;;;;;;;;;;5001130;28;20570;-91
2023/08/03 14:06:58;;;;;;;12.93;4.50;;;;;;;;;;5000781;28;20034;-92
2023/08/03 14:09:24;;;;;;;11.25;3.40;;;;;;;;;;4999207;28;20048;-94
2023/08/03 14:11:54;;;;;;;13.73;3.42;;;19.40;1.00;;;;;;5006716;28;20057;-93